createdAt,value
2022-10-17T00:00:41.513Z,73.09
2022-10-17T00:01:44.611Z,72.73
2022-10-17T00:02:47.700Z,73.95
2022-10-17T00:03:50.741Z,73.23
2022-10-17T00:04:53.697Z,73.29
2022-10-17T00:05:57.925Z,73.98
2022-10-17T00:07:01.248Z,73.68
2022-10-17T00:08:04.381Z,73.40
2022-10-17T00:09:07.318Z,71.99
2022-10-17T00:10:10.238Z,71.40
2022-10-17T00:11:22.825Z,73.54
2022-10-17T00:12:25.726Z,73.07
2022-10-17T00:13:29.247Z,73.27
2022-10-17T00:14:32.117Z,72.92
2022-10-17T00:15:35.339Z,71.54
2022-10-17T00:16:38.489Z,72.32
2022-10-17T00:17:42.251Z,72.81
2022-10-17T00:18:45.075Z,74.20
2022-10-17T00:19:47.946Z,73.99
2022-10-17T00:20:50.851Z,73.23
2022-10-17T00:21:53.904Z,73.34
2022-10-17T00:22:57.698Z,72.19
2022-10-17T00:24:01.652Z,73.31
2022-10-17T00:25:04.880Z,73.59
2022-10-17T00:26:08.087Z,73.80
2022-10-17T00:27:10.996Z,73.16
2022-10-17T00:28:15.999Z,72.54
2022-10-17T00:29:18.932Z,72.44
2022-10-17T00:30:21.780Z,73.03
2022-10-17T00:31:25.492Z,73.20
2022-10-17T00:32:28.677Z,73.00
2022-10-17T00:33:32.662Z,73.27
2022-10-17T00:34:35.593Z,73.46
2022-10-17T00:35:38.434Z,73.25
2022-10-17T00:36:41.558Z,72.75
2022-10-17T00:37:44.437Z,72.69
2022-10-17T00:38:50.715Z,72.89
2022-10-17T00:39:54.619Z,72.71
2022-10-17T00:40:57.505Z,73.25
2022-10-17T00:42:00.365Z,74.79
2022-10-17T00:43:03.143Z,74.45
2022-10-17T00:44:30.947Z,73.27
2022-10-17T00:45:33.711Z,73.01
2022-10-17T00:46:39.126Z,73.40
2022-10-17T00:47:44.934Z,72.90
2022-10-17T00:48:51.295Z,72.76
2022-10-17T00:49:57.474Z,73.42
2022-10-17T00:51:00.418Z,72.52
2022-10-17T00:52:06.777Z,72.10
2022-10-17T00:53:11.143Z,73.98
2022-10-17T00:54:16.503Z,73.91
2022-10-17T00:55:29.664Z,73.98
2022-10-17T00:56:33.241Z,74.79
2022-10-17T00:57:36.500Z,74.83
2022-10-17T00:58:39.314Z,73.88
2022-10-17T00:59:45.413Z,74.06
2022-10-17T01:00:48.732Z,75.62
2022-10-17T01:02:04.540Z,75.18
2022-10-17T01:03:08.418Z,74.62
2022-10-17T01:04:11.215Z,74.16
2022-10-17T01:05:15.693Z,74.18
2022-10-17T01:06:18.624Z,75.32
2022-10-17T01:07:21.654Z,75.32
2022-10-17T01:08:25.810Z,73.56
2022-10-17T01:09:30.472Z,74.26
2022-10-17T01:10:55.135Z,74.88
2022-10-17T01:12:12.492Z,74.26
2022-10-17T01:13:46.212Z,74.17
2022-10-17T01:15:07.217Z,73.10
2022-10-17T01:16:27.092Z,74.65
2022-10-17T01:17:40.062Z,74.36
2022-10-17T01:18:57.304Z,72.96
2022-10-17T01:20:41.933Z,72.18
2022-10-17T01:21:59.329Z,72.00
2022-10-17T01:23:26.340Z,72.76
2022-10-17T01:25:00.056Z,71.91
2022-10-17T01:26:06.336Z,72.38
2022-10-17T01:27:44.612Z,71.54
2022-10-17T01:29:01.694Z,71.87
2022-10-17T01:30:16.540Z,71.27
2022-10-17T01:31:58.135Z,70.50
2022-10-17T01:33:16.063Z,69.32
2022-10-17T01:34:39.781Z,69.44
2022-10-17T01:35:52.695Z,68.30
2022-10-17T01:37:06.576Z,68.25
2022-10-17T01:38:23.701Z,67.77
2022-10-17T01:39:28.095Z,66.80
2022-10-17T01:40:51.582Z,67.81
2022-10-17T01:42:31.063Z,68.37
2022-10-17T01:43:42.453Z,66.58
2022-10-17T01:45:03.491Z,67.33
2022-10-17T01:46:16.456Z,68.61
2022-10-17T01:47:23.254Z,69.60
2022-10-17T01:48:32.855Z,69.12
2022-10-17T01:49:39.011Z,70.23
2022-10-17T01:50:53.934Z,67.82
2022-10-17T01:52:03.052Z,66.86
2022-10-17T01:53:14.092Z,67.11
2022-10-17T01:54:41.900Z,65.90
2022-10-17T01:55:47.496Z,66.33
2022-10-17T01:56:55.533Z,66.41
2022-10-17T01:58:05.975Z,66.63
2022-10-17T01:59:17.862Z,68.36
2022-10-17T02:00:27.052Z,68.75
2022-10-17T02:01:31.641Z,69.38
2022-10-17T02:02:36.583Z,68.29
2022-10-17T02:03:43.215Z,70.07
2022-10-17T02:04:49.278Z,69.42
2022-10-17T02:05:52.252Z,69.71
2022-10-17T02:06:55.064Z,68.46
2022-10-17T02:07:58.338Z,67.74
2022-10-17T02:09:01.220Z,67.82
2022-10-17T02:10:15.649Z,67.87
2022-10-17T02:11:22.303Z,68.31
2022-10-17T02:12:34.263Z,67.13
2022-10-17T02:13:46.218Z,67.29
2022-10-17T02:15:34.021Z,68.89
2022-10-17T02:17:05.974Z,68.36
2022-10-17T02:18:31.251Z,67.31
2022-10-17T02:20:16.100Z,67.21
2022-10-17T02:21:34.099Z,68.11
2022-10-17T02:22:52.062Z,67.21
2022-10-17T02:24:11.067Z,66.45
2022-10-17T02:25:42.412Z,67.48
2022-10-17T02:27:19.774Z,67.87
2022-10-17T02:28:48.352Z,66.63
2022-10-17T02:30:03.193Z,66.84
2022-10-17T02:31:15.722Z,67.18
2022-10-17T02:32:26.597Z,67.54
2022-10-17T02:33:44.064Z,66.07
2022-10-17T02:34:51.067Z,66.07
2022-10-17T02:35:58.787Z,66.38
2022-10-17T02:37:06.154Z,65.89
2022-10-17T02:38:11.460Z,66.48
2022-10-17T02:39:16.548Z,66.11
2022-10-17T02:40:26.375Z,67.05
2022-10-17T02:41:31.929Z,68.58
2022-10-17T02:42:35.861Z,67.61
2022-10-17T02:43:39.856Z,69.09
2022-10-17T02:44:45.299Z,69.05
2022-10-17T02:45:49.095Z,69.67
2022-10-17T02:46:59.735Z,69.80
2022-10-17T02:48:08.654Z,69.67
2022-10-17T02:49:34.494Z,68.45
2022-10-17T02:51:14.578Z,68.22
2022-10-17T02:52:36.136Z,69.86
2022-10-17T02:53:49.534Z,70.24
2022-10-17T02:54:58.744Z,70.13
2022-10-17T02:56:08.894Z,70.19
2022-10-17T02:57:31.492Z,70.23
2022-10-17T02:58:38.007Z,70.82
2022-10-17T02:59:42.181Z,70.83
2022-10-17T03:00:45.719Z,71.05
2022-10-17T03:01:52.272Z,71.33
2022-10-17T03:02:55.614Z,71.01
2022-10-17T03:04:15.315Z,70.37
2022-10-17T03:05:21.913Z,71.57
2022-10-17T03:06:24.893Z,70.43
2022-10-17T03:07:27.653Z,70.92
2022-10-17T03:08:30.696Z,69.78
2022-10-17T03:09:33.611Z,71.57
2022-10-17T03:10:36.413Z,71.01
2022-10-17T03:11:39.412Z,71.14
2022-10-17T03:12:42.373Z,70.21
2022-10-17T03:13:45.217Z,69.21
2022-10-17T03:14:48.013Z,69.16
2022-10-17T03:15:50.937Z,71.22
2022-10-17T03:16:53.693Z,71.26
2022-10-17T03:17:56.621Z,70.46
2022-10-17T03:18:59.455Z,70.51
2022-10-17T03:20:02.781Z,71.41
2022-10-17T03:21:09.373Z,71.35
2022-10-17T03:22:12.331Z,70.87
2022-10-17T03:23:15.251Z,71.99
2022-10-17T03:24:18.061Z,71.23
2022-10-17T03:25:20.981Z,71.92
2022-10-17T03:26:23.893Z,71.95
2022-10-17T03:27:27.072Z,72.15
2022-10-17T03:28:30.714Z,71.92
2022-10-17T03:29:33.599Z,71.76
2022-10-17T03:30:38.858Z,72.03
2022-10-17T03:31:41.699Z,71.95
2022-10-17T03:32:44.623Z,71.69
2022-10-17T03:33:47.536Z,72.20
2022-10-17T03:34:50.412Z,71.99
2022-10-17T03:35:53.253Z,72.20
2022-10-17T03:36:56.190Z,72.48
2022-10-17T03:37:59.997Z,72.38
2022-10-17T03:39:02.856Z,72.76
2022-10-17T03:40:06.345Z,73.10
2022-10-17T03:41:09.558Z,72.95
2022-10-17T03:42:12.381Z,73.21
2022-10-17T03:43:15.256Z,73.92
2022-10-17T03:44:18.118Z,73.67
2022-10-17T03:45:21.002Z,73.50
2022-10-17T03:46:23.962Z,73.34
2022-10-17T03:47:28.633Z,73.09
2022-10-17T03:48:37.996Z,73.02
2022-10-17T03:49:40.855Z,72.87
2022-10-17T03:50:43.758Z,73.02
2022-10-17T03:51:46.822Z,73.71
2022-10-17T03:52:50.269Z,73.97
2022-10-17T03:53:53.210Z,74.32
2022-10-17T03:54:56.118Z,74.68
2022-10-17T03:56:19.822Z,74.50
2022-10-17T03:57:22.653Z,74.57
2022-10-17T03:58:25.413Z,74.71
2022-10-17T03:59:28.236Z,74.60
2022-10-17T04:00:31.036Z,74.71
2022-10-17T04:01:34.011Z,74.67
2022-10-17T04:02:36.875Z,74.75
2022-10-17T04:03:40.082Z,74.99
2022-10-17T04:04:42.840Z,75.09
2022-10-17T04:05:45.607Z,75.07
2022-10-17T04:06:48.792Z,75.29
2022-10-17T04:07:51.563Z,75.42
2022-10-17T04:08:54.459Z,75.27
2022-10-17T04:09:57.252Z,75.25
2022-10-17T04:11:01.578Z,75.65
2022-10-17T04:12:04.559Z,75.95
2022-10-17T04:13:07.456Z,76.20
2022-10-17T04:14:10.606Z,76.03
2022-10-17T04:15:13.571Z,76.59
2022-10-17T04:16:18.317Z,76.38
2022-10-17T04:17:21.247Z,75.98
2022-10-17T04:18:25.108Z,75.96
2022-10-17T04:19:28.085Z,75.65
2022-10-17T04:20:30.930Z,75.71
2022-10-17T04:21:33.969Z,75.37
2022-10-17T04:22:36.879Z,75.86
2022-10-17T04:23:40.066Z,75.80
2022-10-17T04:24:43.151Z,75.88
2022-10-17T04:25:46.157Z,75.60
2022-10-17T04:26:52.406Z,75.27
2022-10-17T04:27:55.166Z,75.17
2022-10-17T04:28:58.067Z,75.64
2022-10-17T04:30:00.848Z,75.80
2022-10-17T04:31:06.329Z,75.62
2022-10-17T04:32:09.007Z,75.96
2022-10-17T04:33:11.716Z,75.82
2022-10-17T04:34:16.391Z,74.44
2022-10-17T04:35:19.370Z,73.81
2022-10-17T04:36:23.748Z,73.77
2022-10-17T04:37:30.427Z,73.91
2022-10-17T04:38:34.401Z,73.73
2022-10-17T04:39:37.335Z,74.68
2022-10-17T04:40:40.137Z,74.44
2022-10-17T04:41:42.871Z,72.57
2022-10-17T04:42:45.821Z,72.79
2022-10-17T04:43:51.147Z,74.64
2022-10-17T04:44:54.429Z,74.17
2022-10-17T04:46:03.552Z,73.21
2022-10-17T04:47:06.251Z,74.16
2022-10-17T04:48:09.542Z,73.67
2022-10-17T04:49:15.432Z,75.10
2022-10-17T04:50:18.449Z,73.84
2022-10-17T04:51:23.308Z,74.07
2022-10-17T04:52:29.034Z,74.37
2022-10-17T04:53:34.597Z,73.72
2022-10-17T04:54:37.380Z,73.59
2022-10-17T04:55:40.247Z,74.13
2022-10-17T04:56:52.039Z,74.80
2022-10-17T04:57:55.078Z,74.63
2022-10-17T04:58:59.789Z,74.06
2022-10-17T05:00:02.967Z,73.72
2022-10-17T05:01:11.749Z,71.99
2022-10-17T05:02:14.647Z,74.33
2022-10-17T05:03:17.929Z,73.99
2022-10-17T05:04:23.925Z,73.54
2022-10-17T05:05:27.854Z,75.21
2022-10-17T05:06:31.768Z,73.98
2022-10-17T05:07:34.718Z,74.08
2022-10-17T05:08:37.556Z,73.99
2022-10-17T05:09:40.309Z,74.54
2022-10-17T05:10:46.394Z,73.50
2022-10-17T05:11:49.461Z,74.20
2022-10-17T05:12:52.371Z,74.05
2022-10-17T05:14:01.068Z,74.52
2022-10-17T05:15:07.454Z,74.10
2022-10-17T05:16:11.011Z,74.80
2022-10-17T05:17:13.764Z,72.09
2022-10-17T05:18:16.665Z,73.88
2022-10-17T05:19:19.495Z,73.48
2022-10-17T05:20:22.477Z,73.64
2022-10-17T05:21:27.372Z,73.56
2022-10-17T05:22:30.325Z,73.37
2022-10-17T05:23:33.570Z,74.18
2022-10-17T05:24:39.466Z,73.77
2022-10-17T05:25:42.237Z,73.88
2022-10-17T05:26:45.296Z,74.24
2022-10-17T05:27:48.205Z,74.77
2022-10-17T05:28:52.689Z,74.16
2022-10-17T05:29:55.717Z,73.61
2022-10-17T05:31:06.646Z,73.93
2022-10-17T05:32:09.150Z,73.67
2022-10-17T05:33:11.915Z,72.12
2022-10-17T05:34:14.710Z,73.93
2022-10-17T05:35:17.484Z,73.86
2022-10-17T05:36:20.705Z,73.59
2022-10-17T05:37:23.769Z,73.81
2022-10-17T05:38:27.965Z,72.75
2022-10-17T05:39:30.871Z,74.02
2022-10-17T05:40:34.731Z,73.69
2022-10-17T05:41:37.628Z,73.33
2022-10-17T05:43:48.221Z,73.71
2022-10-17T05:44:51.095Z,73.74
2022-10-17T05:45:54.659Z,73.40
2022-10-17T05:46:57.639Z,73.04
2022-10-17T05:48:00.534Z,74.40
2022-10-17T05:49:14.650Z,74.00
2022-10-17T05:50:24.227Z,73.28
2022-10-17T05:51:27.208Z,73.84
2022-10-17T05:52:30.916Z,74.14
2022-10-17T05:53:36.432Z,73.28
2022-10-17T05:54:39.330Z,73.07
2022-10-17T05:55:42.152Z,73.79
2022-10-17T05:56:44.923Z,73.48
2022-10-17T05:57:47.934Z,73.73
2022-10-17T05:58:54.068Z,73.86
2022-10-17T05:59:57.926Z,73.15
2022-10-17T06:01:04.119Z,73.26
2022-10-17T06:02:07.167Z,73.66
2022-10-17T06:03:12.809Z,73.50
2022-10-17T06:04:15.776Z,71.91
2022-10-17T06:05:18.775Z,73.06
2022-10-17T06:06:21.855Z,74.31
2022-10-17T06:07:24.630Z,73.48
2022-10-17T06:08:27.406Z,73.40
2022-10-17T06:09:30.308Z,73.68
2022-10-17T06:10:33.205Z,73.61
2022-10-17T06:11:36.667Z,73.15
2022-10-17T06:12:39.845Z,73.25
2022-10-17T06:13:42.835Z,73.14
2022-10-17T06:14:45.613Z,73.18
2022-10-17T06:15:48.426Z,72.93
2022-10-17T06:16:52.256Z,72.66
2022-10-17T06:17:55.303Z,73.82
2022-10-17T06:18:58.014Z,72.65
2022-10-17T06:20:00.890Z,72.97
2022-10-17T06:21:06.594Z,72.50
2022-10-17T06:22:09.584Z,72.61
2022-10-17T06:23:12.349Z,72.43
2022-10-17T06:24:15.369Z,73.13
2022-10-17T06:25:18.364Z,73.21
2022-10-17T06:26:21.251Z,73.07
2022-10-17T06:27:28.520Z,73.23
2022-10-17T06:28:31.950Z,73.42
2022-10-17T06:29:34.792Z,73.74
2022-10-17T06:30:41.652Z,73.40
2022-10-17T06:31:44.578Z,73.84
2022-10-17T06:32:47.629Z,73.75
2022-10-17T06:33:50.493Z,72.22
2022-10-17T06:34:53.456Z,73.51
2022-10-17T06:35:57.255Z,72.62
2022-10-17T06:37:00.139Z,73.27
2022-10-17T06:38:07.622Z,74.42
2022-10-17T06:39:10.564Z,73.08
2022-10-17T06:40:15.446Z,72.51
2022-10-17T06:41:19.604Z,73.64
2022-10-17T06:42:22.523Z,72.43
2022-10-17T06:43:27.791Z,74.17
2022-10-17T06:44:32.144Z,73.24
2022-10-17T06:45:34.968Z,73.19
2022-10-17T06:46:41.306Z,73.45
2022-10-17T06:47:44.043Z,73.40
2022-10-17T06:48:47.068Z,72.77
2022-10-17T06:49:49.860Z,73.22
2022-10-17T06:50:52.697Z,73.04
2022-10-17T06:51:55.521Z,71.92
2022-10-17T06:52:58.572Z,72.20
2022-10-17T06:54:01.486Z,71.51
2022-10-17T06:55:08.653Z,71.11
2022-10-17T06:56:11.751Z,70.93
2022-10-17T06:57:14.513Z,70.71
2022-10-17T06:58:17.361Z,69.46
2022-10-17T06:59:23.679Z,69.12
2022-10-17T07:00:27.079Z,68.68
2022-10-17T07:01:32.085Z,68.39
2022-10-17T07:02:34.985Z,67.39
2022-10-17T07:03:38.606Z,67.94
2022-10-17T07:04:41.387Z,67.96
2022-10-17T07:05:52.482Z,67.52
2022-10-17T07:06:55.378Z,67.78
2022-10-17T07:07:58.197Z,66.25
2022-10-17T07:09:03.116Z,65.99
2022-10-17T07:10:08.850Z,66.29
2022-10-17T07:11:17.309Z,65.82
2022-10-17T07:12:20.166Z,66.42
2022-10-17T07:13:23.346Z,66.57
2022-10-17T07:14:32.359Z,65.22
2022-10-17T07:15:35.149Z,64.74
2022-10-17T07:16:37.991Z,59.69
2022-10-17T07:17:40.878Z,58.64
2022-10-17T07:18:44.139Z,58.28
2022-10-17T07:19:47.731Z,57.44
2022-10-17T07:20:55.079Z,59.65
2022-10-17T07:21:59.678Z,56.67
2022-10-17T07:23:02.836Z,57.10
2022-10-17T07:24:07.697Z,56.81
2022-10-17T07:25:10.511Z,55.08
2022-10-17T07:26:16.317Z,55.91
2022-10-17T07:27:19.142Z,58.22
2022-10-17T07:28:24.966Z,60.13
2022-10-17T07:29:27.883Z,60.10
2022-10-17T07:30:30.890Z,57.67
2022-10-17T07:31:33.972Z,55.16
2022-10-17T07:32:37.045Z,56.04
2022-10-17T07:33:39.983Z,58.47
2022-10-17T07:34:42.773Z,57.16
2022-10-17T07:35:45.535Z,56.85
2022-10-17T07:36:48.205Z,51.47
2022-10-17T07:37:51.148Z,51.53
2022-10-17T07:38:54.578Z,53.08
2022-10-17T07:39:58.527Z,53.32
2022-10-17T07:41:04.653Z,55.38
2022-10-17T07:42:10.688Z,55.37
2022-10-17T07:43:13.559Z,54.06
2022-10-17T07:44:16.653Z,52.97
2022-10-17T07:45:19.438Z,55.35
2022-10-17T07:46:22.462Z,56.14
2022-10-17T07:47:25.571Z,56.55
2022-10-17T07:48:29.215Z,55.31
2022-10-17T07:49:32.097Z,54.09
2022-10-17T07:50:35.022Z,53.88
2022-10-17T07:51:37.921Z,53.00
2022-10-17T07:52:43.421Z,53.25
2022-10-17T07:53:48.740Z,51.51
2022-10-17T07:54:52.231Z,48.33
2022-10-17T07:55:55.029Z,48.61
2022-10-17T07:56:58.156Z,50.21
2022-10-17T07:58:01.129Z,50.95
2022-10-17T07:59:08.254Z,51.64
2022-10-17T08:00:16.711Z,51.52
2022-10-17T08:01:19.497Z,51.54
2022-10-17T08:02:24.456Z,51.40
2022-10-17T08:03:27.169Z,52.52
2022-10-17T08:04:30.097Z,51.96
2022-10-17T08:05:37.591Z,51.40
2022-10-17T08:06:40.557Z,51.80
2022-10-17T08:07:43.464Z,51.19
2022-10-17T08:08:46.406Z,50.31
2022-10-17T08:09:49.317Z,50.36
2022-10-17T08:10:52.409Z,50.17
2022-10-17T08:11:55.190Z,49.76
2022-10-17T08:12:58.927Z,49.86
2022-10-17T08:14:01.739Z,49.19
2022-10-17T08:15:06.270Z,47.60
2022-10-17T08:16:12.464Z,46.34
2022-10-17T08:17:15.777Z,49.51
2022-10-17T08:18:21.958Z,49.62
2022-10-17T08:19:25.029Z,46.94
2022-10-17T08:20:27.841Z,47.05
2022-10-17T08:21:31.411Z,47.43
2022-10-17T08:22:34.156Z,45.22
2022-10-17T08:23:37.837Z,44.95
2022-10-17T08:24:40.665Z,44.88
2022-10-17T08:25:43.531Z,44.37
2022-10-17T08:26:49.585Z,44.89
2022-10-17T08:27:54.844Z,43.34
2022-10-17T08:28:57.879Z,44.83
2022-10-17T08:30:01.819Z,44.52
2022-10-17T08:31:12.311Z,40.10
2022-10-17T08:32:15.259Z,39.78
2022-10-17T08:33:18.136Z,39.32
2022-10-17T08:34:21.037Z,38.61
2022-10-17T08:35:27.592Z,37.56
2022-10-17T08:36:30.377Z,37.68
2022-10-17T08:37:36.747Z,37.89
2022-10-17T08:38:43.806Z,38.74
2022-10-17T08:39:47.021Z,38.38
2022-10-17T08:40:50.012Z,37.06
2022-10-17T08:42:04.737Z,37.56
2022-10-17T08:43:45.123Z,36.18
2022-10-17T08:45:41.919Z,36.50
2022-10-17T08:46:48.043Z,36.13
2022-10-17T08:47:59.446Z,35.97
2022-10-17T08:49:06.567Z,35.42
2022-10-17T08:50:22.516Z,35.77
2022-10-17T08:51:32.415Z,35.35
2022-10-17T08:53:10.315Z,36.04
2022-10-17T08:54:31.233Z,35.29
2022-10-17T08:55:41.493Z,34.72
2022-10-17T08:56:51.518Z,34.45
2022-10-17T08:57:54.367Z,33.30
2022-10-17T08:58:58.438Z,35.47
2022-10-17T09:00:01.502Z,33.75
2022-10-17T09:01:06.976Z,34.60
2022-10-17T09:02:43.164Z,34.28
2022-10-17T09:04:21.241Z,33.70
2022-10-17T09:05:48.207Z,32.97
2022-10-17T09:07:22.639Z,34.89
2022-10-17T09:08:49.701Z,34.16
2022-10-17T09:10:09.357Z,33.59
2022-10-17T09:11:30.261Z,33.60
2022-10-17T09:12:48.019Z,33.00
2022-10-17T09:14:13.227Z,33.29
2022-10-17T09:15:47.474Z,33.50
2022-10-17T09:17:18.068Z,32.32
2022-10-17T09:18:40.492Z,33.21
2022-10-17T09:20:10.320Z,33.42
2022-10-17T09:21:33.791Z,32.41
2022-10-17T09:23:02.584Z,31.52
2022-10-17T09:24:15.900Z,30.77
2022-10-17T09:25:21.118Z,30.67
2022-10-17T09:26:26.117Z,31.51
2022-10-17T09:27:46.014Z,30.45
2022-10-17T09:28:56.608Z,30.04
2022-10-17T09:30:40.476Z,31.12
2022-10-17T09:32:02.849Z,31.83
2022-10-17T09:33:42.290Z,31.86
2022-10-17T09:34:54.485Z,30.85
2022-10-17T09:35:59.639Z,31.25
2022-10-17T09:37:03.293Z,33.03
2022-10-17T09:38:06.276Z,32.28
2022-10-17T09:39:19.831Z,33.05
2022-10-17T09:40:32.357Z,32.06
2022-10-17T09:41:45.482Z,32.67
2022-10-17T09:42:51.745Z,34.03
2022-10-17T09:43:58.601Z,33.24
2022-10-17T09:45:06.008Z,33.10
2022-10-17T09:46:23.734Z,33.42
2022-10-17T09:47:42.044Z,32.77
2022-10-17T09:48:54.476Z,31.35
2022-10-17T09:49:58.023Z,30.67
2022-10-17T09:51:14.674Z,30.62
2022-10-17T09:52:34.038Z,31.21
2022-10-17T09:53:43.178Z,29.99
2022-10-17T09:54:53.085Z,31.28
2022-10-17T09:56:03.419Z,31.87
2022-10-17T09:57:08.958Z,31.76
2022-10-17T09:58:12.905Z,32.09
2022-10-17T09:59:31.970Z,31.71
2022-10-17T10:00:38.733Z,30.27
2022-10-17T10:01:41.571Z,31.04
2022-10-17T10:02:44.449Z,29.74
2022-10-17T10:03:48.054Z,29.44
2022-10-17T10:05:07.104Z,29.84
2022-10-17T10:06:19.689Z,29.97
2022-10-17T10:07:28.260Z,31.23
2022-10-17T10:08:55.891Z,32.01
2022-10-17T10:10:00.469Z,31.18
2022-10-17T10:11:07.872Z,29.05
2022-10-17T10:12:23.348Z,30.52
2022-10-17T10:13:33.669Z,30.18
2022-10-17T10:14:39.861Z,29.33
2022-10-17T10:15:48.022Z,29.74
2022-10-17T10:16:54.043Z,30.05
2022-10-17T10:17:56.979Z,30.78
2022-10-17T10:19:00.009Z,32.29
2022-10-17T10:20:30.479Z,30.25
2022-10-17T10:21:37.391Z,30.90
2022-10-17T10:22:40.494Z,30.88
2022-10-17T10:24:06.332Z,30.38
2022-10-17T10:25:16.977Z,30.96
2022-10-17T10:26:34.984Z,29.81
2022-10-17T10:27:41.229Z,29.40
2022-10-17T10:28:54.806Z,29.61
2022-10-17T10:29:57.790Z,30.38
2022-10-17T10:31:05.152Z,29.24
2022-10-17T10:32:31.474Z,30.96
2022-10-17T10:33:41.756Z,30.93
2022-10-17T10:34:50.207Z,29.92
2022-10-17T10:35:58.289Z,31.02
2022-10-17T10:37:26.820Z,30.77
2022-10-17T10:38:32.601Z,30.69
2022-10-17T10:39:43.993Z,31.11
2022-10-17T10:40:54.977Z,31.42
2022-10-17T10:41:57.954Z,31.50
2022-10-17T10:43:05.408Z,30.15
2022-10-17T10:44:16.474Z,30.08
2022-10-17T10:45:48.984Z,30.15
2022-10-17T10:47:17.959Z,30.71
2022-10-17T10:48:24.938Z,30.69
2022-10-17T10:49:32.445Z,31.05
2022-10-17T10:50:46.753Z,31.64
2022-10-17T10:51:50.515Z,31.18
2022-10-17T10:53:34.976Z,28.95
2022-10-17T10:54:51.087Z,30.43
2022-10-17T10:55:59.686Z,28.89
2022-10-17T10:57:07.564Z,29.63
2022-10-17T10:58:30.576Z,29.87
2022-10-17T10:59:36.957Z,29.60
2022-10-17T11:00:40.285Z,31.08
2022-10-17T11:02:03.474Z,30.52
2022-10-17T11:03:35.249Z,30.48
2022-10-17T11:04:46.608Z,31.17
2022-10-17T11:06:11.186Z,30.79
2022-10-17T11:07:29.118Z,30.05
2022-10-17T11:08:47.974Z,29.43
2022-10-17T11:10:15.688Z,29.76
2022-10-17T11:11:26.060Z,29.32
2022-10-17T11:12:39.310Z,28.57
2022-10-17T11:13:55.220Z,27.58
2022-10-17T11:15:22.549Z,27.12
2022-10-17T11:16:46.371Z,28.04
2022-10-17T11:18:07.685Z,27.11
2022-10-17T11:19:21.305Z,27.67
2022-10-17T11:20:42.322Z,28.02
2022-10-17T11:21:53.077Z,27.94
2022-10-17T11:23:21.820Z,28.92
2022-10-17T11:24:40.074Z,29.21
2022-10-17T11:25:43.530Z,30.87
2022-10-17T11:26:56.026Z,30.04
2022-10-17T11:28:04.481Z,27.20
2022-10-17T11:29:13.940Z,28.38
2022-10-17T11:30:17.973Z,27.35
2022-10-17T11:31:23.838Z,26.64
2022-10-17T11:32:33.577Z,28.15
2022-10-17T11:33:42.522Z,28.39
2022-10-17T11:34:50.301Z,28.50
2022-10-17T11:35:58.875Z,26.86
2022-10-17T11:37:12.355Z,27.01
2022-10-17T11:38:25.817Z,27.54
2022-10-17T11:39:37.433Z,27.98
2022-10-17T11:40:45.213Z,27.23
2022-10-17T11:42:03.402Z,28.12
2022-10-17T11:43:20.506Z,28.91
2022-10-17T11:44:29.534Z,28.86
2022-10-17T11:45:37.167Z,29.96
2022-10-17T11:46:41.948Z,30.12
2022-10-17T11:47:49.699Z,29.66
2022-10-17T11:49:01.998Z,30.40
2022-10-17T11:52:05.951Z,29.78
2022-10-17T11:53:17.212Z,30.81
2022-10-17T11:54:39.566Z,30.59
2022-10-17T11:55:43.810Z,29.53
2022-10-17T11:57:13.990Z,31.85
2022-10-17T11:58:30.406Z,30.84
2022-10-17T12:00:04.231Z,30.76
2022-10-17T12:01:27.728Z,29.95
2022-10-17T12:02:39.392Z,30.58
2022-10-17T12:04:04.251Z,30.88
2022-10-17T12:05:29.023Z,30.66
2022-10-17T12:07:03.730Z,31.45
2022-10-17T12:08:31.288Z,31.36
2022-10-17T12:09:46.466Z,29.27
2022-10-17T12:11:37.369Z,29.73
2022-10-17T12:12:40.830Z,30.88
2022-10-17T12:13:52.043Z,29.59
2022-10-17T12:15:15.443Z,30.01
2022-10-17T12:16:20.990Z,29.38
2022-10-17T12:17:32.979Z,29.38
2022-10-17T12:18:36.979Z,29.56
2022-10-17T12:19:39.900Z,29.52
2022-10-17T12:20:42.874Z,29.56
2022-10-17T12:21:59.558Z,30.20
2022-10-17T12:23:21.632Z,29.59
2022-10-17T12:26:01.483Z,29.30
2022-10-17T12:27:48.362Z,28.72
2022-10-17T12:28:51.799Z,30.64
2022-10-17T12:30:06.611Z,29.67
2022-10-17T12:31:22.350Z,29.68
2022-10-17T12:32:30.161Z,31.45
2022-10-17T12:33:57.626Z,30.15
2022-10-17T12:35:01.389Z,31.97
2022-10-17T12:36:22.786Z,31.22
2022-10-17T12:37:43.748Z,30.82
2022-10-17T12:38:52.295Z,30.96
2022-10-17T12:39:55.165Z,30.49
2022-10-17T12:40:58.631Z,30.07
2022-10-17T12:42:01.556Z,29.64
2022-10-17T12:43:30.357Z,30.25
2022-10-17T12:44:34.927Z,31.29
2022-10-17T12:46:01.029Z,30.71
2022-10-17T12:47:08.193Z,31.28
2022-10-17T12:48:11.278Z,30.37
2022-10-17T12:49:36.813Z,30.54
2022-10-17T12:51:34.707Z,31.12
2022-10-17T12:52:37.450Z,31.88
2022-10-17T12:54:07.319Z,33.28
2022-10-17T12:55:19.559Z,33.82
2022-10-17T12:56:47.348Z,33.93
2022-10-17T12:58:00.256Z,33.90
2022-10-17T12:59:20.452Z,33.34
2022-10-17T13:01:05.246Z,34.33
2022-10-17T13:02:20.580Z,34.13
2022-10-17T13:03:34.073Z,34.20
2022-10-17T13:04:37.268Z,34.03
2022-10-17T13:05:44.206Z,34.40
2022-10-17T13:06:53.492Z,34.28
2022-10-17T13:07:58.004Z,34.11
2022-10-17T13:09:05.681Z,33.52
2022-10-17T13:10:21.189Z,33.90
2022-10-17T13:11:32.073Z,34.18
2022-10-17T13:12:41.161Z,33.08
2022-10-17T13:13:49.776Z,32.89
2022-10-17T13:14:55.354Z,33.69
2022-10-17T13:15:58.296Z,34.47
2022-10-17T13:17:07.172Z,34.03
2022-10-17T13:18:21.162Z,34.57
2022-10-17T13:19:40.345Z,34.82
2022-10-17T13:20:43.162Z,34.38
2022-10-17T13:21:59.884Z,35.32
2022-10-17T13:23:06.528Z,35.07
2022-10-17T13:24:28.773Z,34.71
2022-10-17T13:25:31.636Z,34.71
2022-10-17T13:26:34.528Z,34.17
2022-10-17T13:27:37.823Z,33.69
2022-10-17T13:28:41.974Z,34.20
2022-10-17T13:29:45.104Z,34.66
2022-10-17T13:30:49.675Z,32.69
2022-10-17T13:32:01.347Z,32.77
2022-10-17T13:33:16.610Z,33.57
2022-10-17T13:34:22.498Z,34.00
2022-10-17T13:35:58.898Z,33.45
2022-10-17T13:37:02.259Z,33.88
2022-10-17T13:38:09.960Z,33.13
2022-10-17T13:39:23.142Z,33.13
2022-10-17T13:40:50.019Z,34.76
2022-10-17T13:41:56.093Z,32.76
2022-10-17T13:43:02.469Z,33.11
2022-10-17T13:44:16.795Z,34.48
2022-10-17T13:45:31.504Z,34.50
2022-10-17T13:46:38.391Z,34.23
2022-10-17T13:47:42.334Z,33.71
2022-10-17T13:48:46.059Z,33.87
2022-10-17T13:49:52.919Z,34.42
2022-10-17T13:51:05.973Z,33.86
2022-10-17T13:52:22.940Z,33.82
2022-10-17T13:53:31.564Z,33.14
2022-10-17T13:54:50.940Z,33.38
2022-10-17T13:56:31.188Z,33.37
2022-10-17T13:57:34.280Z,32.77
2022-10-17T13:58:46.647Z,32.83
2022-10-17T13:59:57.699Z,32.83
2022-10-17T14:01:00.588Z,33.55
2022-10-17T14:02:06.364Z,35.17
2022-10-17T14:03:09.167Z,35.36
2022-10-17T14:04:19.588Z,34.31
2022-10-17T14:05:24.062Z,35.11
2022-10-17T14:06:29.310Z,34.29
2022-10-17T14:08:09.487Z,33.43
2022-10-17T14:09:16.800Z,33.49
2022-10-17T14:10:26.444Z,33.20
2022-10-17T14:11:41.651Z,34.23
2022-10-17T14:12:48.128Z,33.71
2022-10-17T14:13:55.265Z,34.00
2022-10-17T14:15:10.182Z,33.50
2022-10-17T14:16:13.925Z,34.55
2022-10-17T14:17:25.591Z,34.32
2022-10-17T14:18:36.553Z,34.85
2022-10-17T14:19:40.023Z,36.08
2022-10-17T14:22:28.808Z,35.61
2022-10-17T14:23:38.413Z,35.41
2022-10-17T14:24:46.139Z,35.37
2022-10-17T14:25:48.995Z,35.65
2022-10-17T14:26:59.123Z,35.32
2022-10-17T14:28:08.262Z,35.78
2022-10-17T14:29:23.885Z,35.89
2022-10-17T14:30:51.693Z,35.69
2022-10-17T14:31:51.027Z,36.08
2022-10-17T14:33:07.285Z,36.39
2022-10-17T14:34:24.596Z,36.11
2022-10-17T14:35:41.669Z,35.95
2022-10-17T14:36:51.568Z,37.05
2022-10-17T14:37:59.839Z,36.75
2022-10-17T14:39:05.319Z,37.03
2022-10-17T14:40:15.858Z,37.10
2022-10-17T14:41:48.070Z,37.25
2022-10-17T14:42:57.330Z,37.89
2022-10-17T14:44:03.472Z,38.06
2022-10-17T14:45:09.883Z,38.37
2022-10-17T14:46:16.928Z,38.45
2022-10-17T14:47:42.094Z,38.42
2022-10-17T14:48:48.017Z,39.24
2022-10-17T14:50:03.992Z,38.45
2022-10-17T14:51:16.058Z,38.83
2022-10-17T14:52:19.126Z,38.87
2022-10-17T14:53:22.379Z,39.25
2022-10-17T14:54:32.928Z,38.71
2022-10-17T14:55:36.919Z,38.70
2022-10-17T14:56:42.134Z,38.83
2022-10-17T14:57:46.342Z,39.05